Time;durP1;ratioP1;P1;durP2;ratioP2;P2;SDS_P1;SDS_P2;PMS_P1;PMS_P2;Temp;Humidity;BMP_temperature;BMP_pressure;BME280_temperature;BME280_humidity;BME280_pressure;Samples;Min_cycle;Max_cycle;Signal;HPM_P1;HPM_P2
2022/12/28 00:00:35;;;;;;;8.25;3.55;;;5.60;99.90;;;;;;5052010;28;20057;-70
2022/12/28 00:03:00;;;;;;;14.70;4.25;;;5.70;99.90;;;;;;5042934;28;20025;-71
2022/12/28 00:05:26;;;;;;;10.70;3.85;;;5.70;99.90;;;;;;5053634;28;20022;-71
2022/12/28 00:07:52;;;;;;;9.85;3.10;;;5.70;99.90;;;;;;5051027;28;20081;-72
2022/12/28 00:10:17;;;;;;;13.93;3.60;;;5.60;99.90;;;;;;5041943;28;20045;-71
2022/12/28 00:12:43;;;;;;;8.10;2.97;;;5.70;99.90;;;;;;5044954;28;20033;-68
2022/12/28 00:15:08;;;;;;;13.63;3.20;;;5.60;99.90;;;;;;5040981;28;20047;-74
2022/12/28 00:17:34;;;;;;;34.78;10.38;;;5.70;99.90;;;;;;5043086;28;20028;-72
2022/12/28 00:19:59;;;;;;;13.93;4.18;;;5.70;99.90;;;;;;5057270;28;20059;-71
2022/12/28 00:22:26;;;;;;;15.70;3.70;;;5.70;99.90;;;;;;5057910;28;20521;-72
2022/12/28 00:24:52;;;;;;;13.45;4.53;;;5.70;99.90;;;;;;5057947;28;20037;-72
2022/12/28 00:27:18;;;;;;;12.80;3.17;;;5.70;99.90;;;;;;5053141;28;20036;-72
2022/12/28 00:29:43;;;;;;;10.35;3.25;;;5.60;99.90;;;;;;5050770;28;20409;-70
2022/12/28 00:32:09;;;;;;;10.93;3.50;;;5.70;99.90;;;;;;5051012;28;20087;-71
2022/12/28 00:34:34;;;;;;;18.83;2.80;;;5.70;99.90;;;;;;5050239;28;20032;-71
2022/12/28 00:37:00;;;;;;;13.07;4.95;;;5.70;99.90;;;;;;5039205;28;20044;-70
2022/12/28 00:39:25;;;;;;;10.52;3.17;;;5.70;99.90;;;;;;5040965;28;20025;-70
2022/12/28 00:41:55;;;;;;;6.82;2.78;;;5.80;99.90;;;;;;5057832;28;20033;-72
2022/12/28 00:44:22;;;;;;;9.73;3.53;;;5.70;99.90;;;;;;5038944;28;20029;-71
2022/12/28 00:46:47;;;;;;;13.52;3.00;;;5.70;99.90;;;;;;5057905;28;20025;-72
2022/12/28 00:49:13;;;;;;;14.02;2.78;;;5.70;99.90;;;;;;5055922;28;20053;-72
2022/12/28 00:51:38;;;;;;;14.00;3.13;;;5.70;99.90;;;;;;5057927;28;20053;-72
2022/12/28 00:54:04;;;;;;;8.68;2.97;;;5.70;99.90;;;;;;5049078;28;20029;-72
2022/12/28 00:56:30;;;;;;;6.55;2.65;;;5.80;99.90;;;;;;5039778;28;20100;-68
2022/12/28 00:58:58;;;;;;;12.65;2.97;;;5.80;99.90;;;;;;5050180;28;20028;-73
2022/12/28 01:01:25;;;;;;;11.07;3.17;;;5.80;99.90;;;;;;5039109;28;20078;-72
2022/12/28 01:03:51;;;;;;;13.32;3.78;;;5.70;99.90;;;;;;5058284;28;20481;-66
2022/12/28 01:06:18;;;;;;;7.53;2.53;;;5.80;99.90;;;;;;5049494;28;20034;-68
2022/12/28 01:08:44;;;;;;;6.97;2.95;;;5.70;99.90;;;;;;5050500;28;20038;-68
2022/12/28 01:11:15;;;;;;;8.95;2.65;;;5.80;99.90;;;;;;5049404;28;20109;-67
2022/12/28 01:13:41;;;;;;;15.95;3.75;;;5.80;99.90;;;;;;5053338;28;20124;-69
2022/12/28 01:16:19;;;;;;;8.65;2.63;;;5.80;99.90;;;;;;5061298;28;20518;-72
2022/12/28 01:18:45;;;;;;;7.28;2.88;;;5.80;99.90;;;;;;5060217;28;20436;-73
2022/12/28 01:21:17;;;;;;;14.18;3.90;;;5.80;99.90;;;;;;5056475;28;20429;-71
2022/12/28 01:23:44;;;;;;;12.48;2.97;;;5.80;99.90;;;;;;5032405;28;20025;-68
2022/12/28 01:26:10;;;;;;;12.23;3.33;;;5.80;99.90;;;;;;5052636;28;20021;-70
2022/12/28 01:28:36;;;;;;;14.55;2.40;;;5.90;99.90;;;;;;5048872;28;20169;-68
2022/12/28 01:31:07;;;;;;;11.10;3.83;;;5.80;99.90;;;;;;5046304;28;20021;-69
2022/12/28 01:33:33;;;;;;;9.15;2.97;;;5.90;99.90;;;;;;5034131;28;20394;-70
2022/12/28 01:36:05;;;;;;;11.75;3.28;;;5.80;99.90;;;;;;5049398;28;20029;-67
2022/12/28 01:38:30;;;;;;;16.55;4.00;;;5.80;99.90;;;;;;5048873;28;20044;-70
2022/12/28 01:40:56;;;;;;;15.38;4.15;;;6.00;99.90;;;;;;5034318;28;20033;-73
2022/12/28 01:43:51;;;;;;;11.77;3.35;;;5.80;99.90;;;;;;5050284;28;20104;-72
2022/12/28 01:46:38;;;;;;;12.95;3.50;;;5.80;99.90;;;;;;5034625;28;20081;-69
2022/12/28 01:49:06;;;;;;;13.70;3.13;;;5.70;99.90;;;;;;5047016;28;20473;-70
2022/12/28 01:51:51;;;;;;;11.50;3.63;;;5.80;99.90;;;;;;5048204;28;20026;-69
2022/12/28 01:54:17;;;;;;;;;;;5.70;99.90;;;;;;5033598;28;20083;-71
2022/12/28 01:56:43;;;;;;;5.07;1.88;;;5.70;99.90;;;;;;5050200;28;19928;-70
2022/12/28 01:59:10;;;;;;;13.05;3.55;;;5.80;99.90;;;;;;5033343;28;20025;-70
2022/12/28 02:01:36;;;;;;;8.55;3.03;;;5.60;99.90;;;;;;5032266;28;20129;-71
2022/12/28 02:04:02;;;;;;;10.38;3.10;;;5.60;99.90;;;;;;5049189;28;20463;-71
2022/12/28 02:06:28;;;;;;;13.18;3.05;;;5.60;99.90;;;;;;5044597;28;20018;-71
2022/12/28 02:09:01;;;;;;;10.27;4.32;;;5.60;99.90;;;;;;5033968;28;20064;-69
2022/12/28 02:11:27;;;;;;;8.98;3.10;;;5.50;99.90;;;;;;5050518;28;20687;-69
2022/12/28 02:13:54;;;;;;;7.30;3.15;;;5.50;99.90;;;;;;5050384;28;20041;-70
2022/12/28 02:16:20;;;;;;;7.90;3.13;;;5.50;99.90;;;;;;5049530;28;20062;-71
2022/12/28 02:18:47;;;;;;;13.07;3.50;;;5.50;99.90;;;;;;5049626;28;20025;-70
2022/12/28 02:21:18;;;;;;;17.48;3.60;;;5.50;99.90;;;;;;5033213;28;20055;-68
2022/12/28 02:24:03;;;;;;;9.40;3.38;;;5.40;99.90;;;;;;5050436;28;20458;-69
2022/12/28 02:26:49;;;;;;;10.65;3.78;;;5.30;99.90;;;;;;5049162;28;20037;-67
2022/12/28 02:29:45;;;;;;;15.20;3.80;;;5.40;99.90;;;;;;5047033;28;20038;-69
2022/12/28 02:32:42;;;;;;;13.07;3.85;;;5.40;99.90;;;;;;5051809;28;20056;-69
2022/12/28 02:35:31;;;;;;;10.65;3.70;;;5.30;99.90;;;;;;5049173;28;20057;-70
2022/12/28 02:37:59;;;;;;;15.40;3.90;;;5.30;99.90;;;;;;5049294;28;20025;-70
2022/12/28 02:40:40;;;;;;;10.00;3.90;;;5.30;99.90;;;;;;5047536;28;20033;-69
2022/12/28 02:43:06;;;;;;;10.38;2.65;;;5.20;99.90;;;;;;5047158;28;20040;-69
2022/12/28 02:51:49;;;;;;;9.55;2.75;;;5.20;99.90;;;;;;5051241;28;20128;-70
2022/12/28 02:57:42;;;;;;;11.75;3.88;;;5.00;99.90;;;;;;5046754;28;20741;-68
2022/12/28 03:00:15;;;;;;;7.03;3.72;;;5.00;99.90;;;;;;5045870;28;20033;-69
2022/12/28 03:03:00;;;;;;;15.27;4.88;;;5.00;99.90;;;;;;5045534;28;20048;-68
2022/12/28 03:08:20;;;;;;;6.63;3.55;;;4.90;99.90;;;;;;5047406;28;20533;-71
2022/12/28 03:10:59;;;;;;;17.88;4.30;;;4.90;99.90;;;;;;5047410;28;20041;-68
2022/12/28 03:13:42;;;;;;;9.77;4.32;;;4.90;99.90;;;;;;5050309;28;20021;-71
2022/12/28 03:16:27;;;;;;;9.60;3.83;;;4.90;99.90;;;;;;5031475;28;20071;-71
2022/12/28 03:32:58;;;;;;;15.30;4.50;;;4.90;99.90;;;;;;5045607;28;20044;-71
2022/12/28 03:35:34;;;;;;;12.90;4.78;;;4.80;99.90;;;;;;5046248;28;20021;-69
2022/12/28 03:38:02;;;;;;;16.40;5.78;;;4.80;99.90;;;;;;5045244;28;20089;-69
2022/12/28 03:40:47;;;;;;;11.10;4.20;;;4.80;99.90;;;;;;5032415;28;20125;-70
2022/12/28 03:43:41;;;;;;;13.93;4.43;;;4.80;99.90;;;;;;5038228;28;20037;-71
2022/12/28 03:46:13;;;;;;;11.75;3.90;;;4.80;99.90;;;;;;5049356;28;20015;-70
2022/12/28 03:48:40;;;;;;;16.73;6.85;;;4.90;99.90;;;;;;5048756;28;20210;-69
2022/12/28 03:51:06;;;;;;;13.48;4.45;;;4.90;99.90;;;;;;5047143;28;20013;-68
2022/12/28 03:53:44;;;;;;;13.40;4.03;;;4.90;99.90;;;;;;5031627;28;20508;-72
2022/12/28 03:56:11;;;;;;;20.52;6.68;;;4.90;99.90;;;;;;5047719;28;20070;-70
2022/12/28 03:58:37;;;;;;;12.98;4.78;;;4.90;99.90;;;;;;5041535;28;20104;-71
2022/12/28 04:01:05;;;;;;;8.48;3.33;;;5.00;99.90;;;;;;5048183;28;20034;-71
2022/12/28 04:03:31;;;;;;;17.75;6.32;;;5.00;99.90;;;;;;5042957;28;20029;-71
2022/12/28 04:05:57;;;;;;;16.65;6.10;;;5.00;99.90;;;;;;5044695;28;20092;-70
2022/12/28 04:08:23;;;;;;;12.50;4.05;;;5.10;99.90;;;;;;5046846;28;20035;-74
2022/12/28 04:10:48;;;;;;;10.25;4.10;;;5.10;99.90;;;;;;5041382;28;20033;-72
2022/12/28 04:13:17;;;;;;;12.18;4.72;;;5.10;99.90;;;;;;5047014;28;20072;-72
2022/12/28 04:15:42;;;;;;;13.50;5.60;;;5.10;99.90;;;;;;5043363;28;20030;-71
2022/12/28 04:18:08;;;;;;;14.38;5.55;;;5.10;99.90;;;;;;5045321;28;20079;-70
2022/12/28 04:20:33;;;;;;;10.57;4.18;;;5.00;99.90;;;;;;5032487;28;20044;-72
2022/12/28 04:22:59;;;;;;;18.30;5.47;;;5.10;99.90;;;;;;5059445;28;20025;-73
2022/12/28 04:25:25;;;;;;;12.27;5.07;;;5.10;99.90;;;;;;5048642;28;20048;-70
2022/12/28 04:27:51;;;;;;;11.25;4.15;;;5.00;99.90;;;;;;5050321;28;20493;-71
2022/12/28 04:30:16;;;;;;;12.65;5.78;;;5.10;99.90;;;;;;5041643;28;20087;-74
2022/12/28 04:32:42;;;;;;;12.75;5.15;;;5.10;99.90;;;;;;5042198;28;20508;-70
2022/12/28 04:35:08;;;;;;;12.18;4.95;;;5.00;99.90;;;;;;5053981;28;20072;-71
2022/12/28 04:37:37;;;;;;;17.30;6.68;;;5.10;99.90;;;;;;5058166;28;20025;-71
2022/12/28 04:40:03;;;;;;;13.68;5.90;;;5.00;99.90;;;;;;5051019;28;20068;-72
2022/12/28 04:42:28;;;;;;;16.25;6.43;;;5.10;99.90;;;;;;5056702;28;20029;-71
2022/12/28 04:44:54;;;;;;;19.13;7.35;;;5.10;99.90;;;;;;5055036;28;20045;-71
2022/12/28 04:47:20;;;;;;;21.65;7.80;;;5.10;99.90;;;;;;5045062;28;20051;-72
2022/12/28 04:49:45;;;;;;;16.08;7.10;;;5.10;99.90;;;;;;5048015;28;20156;-72
2022/12/28 04:52:11;;;;;;;18.80;7.65;;;5.10;99.90;;;;;;5057681;28;20040;-69
2022/12/28 04:54:36;;;;;;;14.35;6.63;;;5.10;99.90;;;;;;5062471;28;20040;-69
2022/12/28 04:57:02;;;;;;;15.40;7.55;;;5.10;99.90;;;;;;5062171;28;20081;-72
2022/12/28 04:59:28;;;;;;;17.77;8.18;;;5.10;99.90;;;;;;5048568;28;20039;-70
2022/12/28 05:01:53;;;;;;;15.73;6.53;;;5.20;99.90;;;;;;5066072;28;20021;-71
2022/12/28 05:04:19;;;;;;;18.58;7.00;;;5.20;99.90;;;;;;5059179;28;20025;-69
2022/12/28 05:06:44;;;;;;;17.77;8.02;;;5.20;99.90;;;;;;5048291;28;20487;-70
2022/12/28 05:09:10;;;;;;;19.55;8.10;;;5.30;99.90;;;;;;5063080;28;20044;-70
2022/12/28 05:11:36;;;;;;;17.13;7.90;;;5.20;99.90;;;;;;5057135;28;20021;-70
2022/12/28 05:14:01;;;;;;;24.33;8.43;;;5.20;99.90;;;;;;5065035;28;20079;-70
2022/12/28 05:16:28;;;;;;;20.95;8.57;;;5.30;99.90;;;;;;5059440;28;20108;-73
2022/12/28 05:18:55;;;;;;;20.75;9.10;;;5.30;99.90;;;;;;5061125;28;20029;-70
2022/12/28 05:21:24;;;;;;;20.65;9.90;;;5.30;99.90;;;;;;5062759;28;20055;-71
2022/12/28 05:23:51;;;;;;;28.88;9.75;;;5.30;99.90;;;;;;5058300;28;20029;-70
2022/12/28 05:26:19;;;;;;;26.08;9.70;;;5.30;99.90;;;;;;5046283;28;20033;-71
2022/12/28 05:28:45;;;;;;;22.63;8.77;;;5.30;99.90;;;;;;5065269;28;20037;-69
2022/12/28 05:31:13;;;;;;;23.30;10.25;;;5.30;99.90;;;;;;5062097;28;20081;-71
2022/12/28 05:33:40;;;;;;;12.65;5.85;;;5.40;99.90;;;;;;5056973;28;20028;-69
2022/12/28 05:36:08;;;;;;;17.00;8.98;;;5.40;99.90;;;;;;5047067;28;20021;-72
2022/12/28 05:38:34;;;;;;;23.38;9.85;;;5.40;99.90;;;;;;5063399;28;20028;-71
2022/12/28 05:41:08;;;;;;;21.35;9.35;;;5.40;99.90;;;;;;5057066;28;20025;-71
2022/12/28 05:43:34;;;;;;;19.30;9.05;;;5.50;99.90;;;;;;5060912;28;20505;-70
2022/12/28 05:46:02;;;;;;;21.48;9.05;;;5.50;99.90;;;;;;5062389;28;20045;-74
2022/12/28 05:48:30;;;;;;;25.77;10.43;;;5.40;99.90;;;;;;5062151;28;20510;-71
2022/12/28 05:50:59;;;;;;;16.27;8.65;;;5.50;99.90;;;;;;5064067;28;20033;-70
2022/12/28 05:53:25;;;;;;;22.70;9.82;;;5.50;99.90;;;;;;5063893;28;20028;-70
2022/12/28 05:55:51;;;;;;;20.00;10.00;;;5.50;99.90;;;;;;5047319;28;20028;-69
2022/12/28 05:58:16;;;;;;;19.95;8.90;;;5.50;99.90;;;;;;5062606;28;20029;-71
2022/12/28 06:00:45;;;;;;;19.35;9.60;;;5.50;99.90;;;;;;5060002;28;20025;-69
2022/12/28 06:03:11;;;;;;;26.38;10.15;;;5.60;99.90;;;;;;5060205;28;20025;-69
2022/12/28 06:05:36;;;;;;;18.08;9.10;;;5.60;99.90;;;;;;5041334;28;20021;-68
2022/12/28 06:08:02;;;;;;;22.52;9.73;;;5.60;99.90;;;;;;5055384;28;20063;-68
2022/12/28 06:10:28;;;;;;;26.55;11.75;;;5.60;99.90;;;;;;5058915;28;20037;-73
2022/12/28 06:12:53;;;;;;;22.38;10.75;;;5.70;99.90;;;;;;5044270;28;20084;-69
2022/12/28 06:15:19;;;;;;;19.08;10.15;;;5.70;99.90;;;;;;5057396;28;20623;-69
2022/12/28 06:17:45;;;;;;;37.00;12.95;;;5.80;99.90;;;;;;5045950;28;20063;-71
2022/12/28 06:20:10;;;;;;;29.33;12.25;;;5.70;99.90;;;;;;5053408;28;20025;-69
2022/12/28 06:22:36;;;;;;;26.73;12.75;;;5.70;99.90;;;;;;5041836;28;20068;-69
2022/12/28 06:25:02;;;;;;;27.13;13.23;;;5.80;99.90;;;;;;5053535;28;20068;-69
2022/12/28 06:27:27;;;;;;;30.25;12.38;;;5.80;99.90;;;;;;5052525;28;20119;-71
2022/12/28 06:29:53;;;;;;;27.02;11.93;;;5.80;99.90;;;;;;5035226;28;20049;-72
2022/12/28 06:32:19;;;;;;;27.23;12.27;;;5.80;99.90;;;;;;5053196;28;20049;-67
2022/12/28 06:34:45;;;;;;;22.67;10.65;;;5.80;99.90;;;;;;5059639;28;20057;-69
2022/12/28 06:37:17;;;;;;;23.75;12.13;;;5.80;99.90;;;;;;5058080;28;20024;-74
2022/12/28 06:39:42;;;;;;;19.02;10.23;;;5.80;99.90;;;;;;5051794;28;20030;-68
2022/12/28 06:42:08;;;;;;;25.40;11.65;;;5.80;99.90;;;;;;5048001;28;20079;-68
2022/12/28 06:44:33;;;;;;;27.42;12.38;;;5.80;99.90;;;;;;5058802;28;20021;-68
2022/12/28 06:46:59;;;;;;;28.60;12.93;;;5.80;99.90;;;;;;5058686;28;20033;-68
2022/12/28 06:49:24;;;;;;;30.65;14.02;;;5.80;99.90;;;;;;5051912;28;20045;-68
2022/12/28 06:51:50;;;;;;;32.80;14.90;;;5.90;99.90;;;;;;5058799;28;20029;-68
2022/12/28 06:54:16;;;;;;;32.67;16.42;;;5.90;99.90;;;;;;5053045;28;20040;-67
2022/12/28 06:56:41;;;;;;;38.58;16.55;;;5.90;99.90;;;;;;5060317;28;20035;-67
2022/12/28 06:59:07;;;;;;;32.30;15.30;;;5.90;99.90;;;;;;5059431;28;20050;-68
2022/12/28 07:01:38;;;;;;;32.42;14.65;;;6.00;99.90;;;;;;5042531;28;20035;-68
2022/12/28 07:04:06;;;;;;;31.77;14.68;;;6.00;99.90;;;;;;5056527;28;20088;-70
2022/12/28 07:06:39;;;;;;;38.55;15.52;;;6.00;99.90;;;;;;5038882;28;20029;-69
2022/12/28 07:09:09;;;;;;;27.60;12.70;;;6.10;99.90;;;;;;5058010;28;20029;-67
2022/12/28 07:11:35;;;;;;;26.00;12.85;;;6.10;99.90;;;;;;5057627;28;20033;-68
2022/12/28 07:14:01;;;;;;;25.70;11.73;;;6.10;99.90;;;;;;5058620;28;20091;-68
2022/12/28 07:16:28;;;;;;;25.38;11.75;;;6.20;99.90;;;;;;5059738;28;20036;-70
2022/12/28 07:18:55;;;;;;;25.38;12.63;;;6.20;99.90;;;;;;5059306;28;20020;-68
2022/12/28 07:21:27;;;;;;;20.52;10.48;;;6.30;99.90;;;;;;5059246;28;20568;-66
2022/12/28 07:23:54;;;;;;;28.63;13.23;;;6.30;99.90;;;;;;5059353;28;20028;-70
2022/12/28 07:26:22;;;;;;;24.08;12.65;;;6.30;99.90;;;;;;5059691;28;20033;-67
2022/12/28 07:28:50;;;;;;;23.63;12.50;;;6.40;99.90;;;;;;5047960;28;20036;-67
2022/12/28 07:31:21;;;;;;;19.92;11.10;;;6.50;99.90;;;;;;5055509;28;20018;-67
2022/12/28 07:33:49;;;;;;;21.88;11.40;;;6.40;99.90;;;;;;5059169;28;20052;-67
2022/12/28 07:36:17;;;;;;;23.10;11.93;;;6.50;99.90;;;;;;5059038;28;20729;-69
2022/12/28 07:38:44;;;;;;;21.70;10.93;;;6.50;99.90;;;;;;5059122;28;20025;-70
2022/12/28 07:41:13;;;;;;;19.13;10.88;;;6.50;99.90;;;;;;5058683;28;20021;-69
2022/12/28 07:43:39;;;;;;;18.75;10.50;;;6.60;99.90;;;;;;5058055;28;20089;-68
2022/12/28 07:46:12;;;;;;;26.83;9.43;;;6.60;99.90;;;;;;5059020;28;20036;-69
2022/12/28 07:48:38;;;;;;;20.23;11.55;;;6.60;99.90;;;;;;5059159;28;20430;-67
2022/12/28 07:51:11;;;;;;;20.08;10.48;;;6.70;99.90;;;;;;5054901;28;20049;-71
2022/12/28 07:53:38;;;;;;;20.00;10.35;;;6.70;99.90;;;;;;5032474;28;20036;-67
2022/12/28 07:56:04;;;;;;;18.80;9.95;;;6.70;99.90;;;;;;5060171;28;20108;-69
2022/12/28 07:58:29;;;;;;;19.98;9.98;;;6.70;99.90;;;;;;5049653;28;20458;-70
2022/12/28 08:01:12;;;;;;;15.90;9.25;;;6.80;99.90;;;;;;5051381;28;20021;-70
2022/12/28 08:03:39;;;;;;;21.45;10.68;;;6.80;99.90;;;;;;5055409;28;20025;-69
2022/12/28 08:06:06;;;;;;;19.65;9.43;;;6.80;99.90;;;;;;5040885;28;20515;-71
2022/12/28 08:08:45;;;;;;;24.90;11.00;;;6.80;99.90;;;;;;5058879;28;20045;-68
2022/12/28 08:11:14;;;;;;;17.95;10.48;;;6.90;99.90;;;;;;5049603;28;20029;-69
2022/12/28 08:13:41;;;;;;;21.05;10.10;;;6.90;99.90;;;;;;5051222;28;20037;-68
2022/12/28 08:16:08;;;;;;;18.23;10.20;;;6.90;99.90;;;;;;5058117;28;20024;-69
2022/12/28 08:18:34;;;;;;;19.75;11.10;;;6.90;99.90;;;;;;5058512;28;20057;-68
2022/12/28 08:21:05;;;;;;;19.85;10.55;;;7.00;99.90;;;;;;5057634;28;20048;-68
2022/12/28 08:23:31;;;;;;;18.77;10.80;;;7.00;99.90;;;;;;5050061;28;20056;-70
2022/12/28 08:26:08;;;;;;;21.77;10.05;;;7.00;99.90;;;;;;5046316;28;20499;-72
2022/12/28 08:28:34;;;;;;;19.50;10.60;;;7.10;99.90;;;;;;5045529;28;20037;-66
2022/12/28 08:31:12;;;;;;;22.88;11.50;;;7.10;99.90;;;;;;5042030;28;20043;-69
2022/12/28 08:33:37;;;;;;;15.55;8.98;;;7.10;99.90;;;;;;5041879;28;20021;-68
2022/12/28 08:36:08;;;;;;;22.95;10.68;;;7.10;99.90;;;;;;5049974;28;20052;-67
2022/12/28 08:38:34;;;;;;;18.92;11.32;;;7.20;99.90;;;;;;5049711;28;20021;-68
2022/12/28 08:41:02;;;;;;;18.95;10.10;;;7.20;99.90;;;;;;5049720;28;20097;-69
2022/12/28 08:43:29;;;;;;;16.98;9.90;;;7.20;99.90;;;;;;5049240;28;20059;-69
2022/12/28 08:46:04;;;;;;;13.48;8.23;;;7.20;99.90;;;;;;5052649;28;20053;-68
2022/12/28 08:48:31;;;;;;;19.83;10.23;;;7.20;99.90;;;;;;5035571;28;20033;-68
2022/12/28 08:51:06;;;;;;;16.25;8.23;;;7.30;99.90;;;;;;5050850;28;20096;-70
2022/12/28 08:53:32;;;;;;;17.98;9.45;;;7.30;99.90;;;;;;5042104;28;20025;-67
2022/12/28 08:56:07;;;;;;;17.60;9.68;;;7.30;99.90;;;;;;5055318;28;20083;-69
2022/12/28 08:58:32;;;;;;;16.02;9.30;;;7.40;99.90;;;;;;5059193;28;20032;-67
2022/12/28 09:01:12;;;;;;;18.90;9.20;;;7.40;99.90;;;;;;5041973;28;20025;-69
2022/12/28 09:03:41;;;;;;;17.50;10.15;;;7.40;99.90;;;;;;5055020;28;20445;-68
2022/12/28 09:06:10;;;;;;;19.08;8.43;;;7.40;99.90;;;;;;5058869;28;20021;-69
2022/12/28 09:08:36;;;;;;;17.35;8.00;;;7.40;99.90;;;;;;5041921;28;20040;-70
2022/12/28 09:11:04;;;;;;;12.88;7.53;;;7.50;99.90;;;;;;5049632;28;20088;-70
2022/12/28 09:13:31;;;;;;;17.13;9.23;;;7.50;99.90;;;;;;5040405;28;20084;-70
2022/12/28 09:15:59;;;;;;;16.45;8.27;;;7.50;99.90;;;;;;5050716;28;20037;-68
2022/12/28 09:18:25;;;;;;;15.93;8.82;;;7.50;99.90;;;;;;5057391;28;20044;-68
2022/12/28 09:20:52;;;;;;;16.33;9.10;;;7.60;99.90;;;;;;5050283;28;20053;-67
2022/12/28 09:23:18;;;;;;;17.73;8.77;;;7.60;99.90;;;;;;5050986;28;20047;-68
2022/12/28 09:25:43;;;;;;;14.95;9.07;;;7.60;99.90;;;;;;5037603;28;20033;-68
2022/12/28 09:28:12;;;;;;;17.80;9.05;;;7.60;99.90;;;;;;5049996;28;20036;-69
2022/12/28 09:30:38;;;;;;;12.90;7.93;;;7.70;99.90;;;;;;5054002;28;20095;-69
2022/12/28 09:35:48;;;;;;;;;;;7.70;99.90;;;;;;5053322;28;20039;-67
2022/12/28 09:38:14;;;;;;;16.75;9.23;;;7.70;99.90;;;;;;5053816;28;19909;-71
2022/12/28 09:40:39;;;;;;;14.25;7.85;;;7.70;99.90;;;;;;5052995;28;20018;-70
2022/12/28 09:43:05;;;;;;;19.92;9.75;;;7.80;99.90;;;;;;5040153;28;20025;-71
2022/12/28 09:45:32;;;;;;;15.88;8.40;;;7.80;99.90;;;;;;5039446;28;20031;-70
2022/12/28 09:48:06;;;;;;;14.07;8.90;;;7.80;99.90;;;;;;5054967;28;20064;-68
2022/12/28 09:50:34;;;;;;;19.38;10.32;;;7.90;99.90;;;;;;5053121;28;20033;-67
2022/12/28 09:53:19;;;;;;;17.38;9.68;;;7.90;99.90;;;;;;5056500;28;20140;-69
2022/12/28 09:55:59;;;;;;;16.55;8.98;;;7.90;99.90;;;;;;5055627;28;20025;-69
2022/12/28 09:58:27;;;;;;;16.50;9.38;;;7.90;99.90;;;;;;5055878;28;20029;-71
2022/12/28 10:00:56;;;;;;;13.57;8.38;;;8.00;99.90;;;;;;5055920;28;20022;-69
2022/12/28 10:03:42;;;;;;;18.55;8.95;;;8.00;99.90;;;;;;5054017;28;20059;-68
2022/12/28 10:06:13;;;;;;;15.02;9.10;;;8.00;99.90;;;;;;5053807;28;20033;-66
2022/12/28 10:08:47;;;;;;;15.80;8.85;;;8.00;99.90;;;;;;5055556;28;20432;-69
2022/12/28 10:11:22;;;;;;;16.45;7.97;;;8.00;99.90;;;;;;5052445;28;20039;-69
2022/12/28 10:13:53;;;;;;;13.43;7.88;;;8.00;99.90;;;;;;5057474;28;20040;-68
2022/12/28 10:16:20;;;;;;;16.13;9.05;;;8.10;99.90;;;;;;5055550;28;20049;-69
2022/12/28 10:18:47;;;;;;;10.98;6.03;;;8.10;99.90;;;;;;5060259;28;20025;-67
2022/12/28 10:21:18;;;;;;;12.30;7.25;;;8.10;99.90;;;;;;5058574;28;20072;-71
2022/12/28 10:23:47;;;;;;;10.20;5.97;;;8.10;99.90;;;;;;5054896;28;20033;-68
2022/12/28 10:26:16;;;;;;;11.27;7.25;;;8.10;99.90;;;;;;5055460;28;20033;-67
2022/12/28 10:28:53;;;;;;;14.45;7.40;;;8.10;99.90;;;;;;5054372;28;20032;-68
2022/12/28 10:31:36;;;;;;;10.93;6.30;;;8.10;99.90;;;;;;5056858;28;20033;-70
2022/12/28 10:34:15;;;;;;;11.57;7.53;;;8.10;99.90;;;;;;5060971;28;20025;-69
2022/12/28 10:36:41;;;;;;;10.70;6.47;;;8.10;99.90;;;;;;5054468;28;20032;-68
2022/12/28 10:39:20;;;;;;;9.05;5.38;;;8.10;99.90;;;;;;5060694;28;20108;-69
2022/12/28 10:41:47;;;;;;;9.90;5.78;;;8.20;99.90;;;;;;5060118;28;20032;-70
2022/12/28 10:44:34;;;;;;;9.23;5.53;;;8.20;99.90;;;;;;5051857;28;20053;-69
2022/12/28 10:47:16;;;;;;;8.75;4.90;;;8.20;99.90;;;;;;5057747;28;20025;-70
2022/12/28 10:49:49;;;;;;;12.10;5.75;;;8.20;99.90;;;;;;5044961;28;20183;-69
2022/12/28 10:52:15;;;;;;;45.50;18.63;;;8.20;99.90;;;;;;5042232;28;20093;-71
2022/12/28 10:54:41;;;;;;;11.73;7.03;;;8.20;99.90;;;;;;5057038;28;20049;-70
2022/12/28 10:57:17;;;;;;;13.07;6.18;;;8.20;99.90;;;;;;5056286;28;20445;-70
2022/12/28 10:59:42;;;;;;;18.27;6.40;;;8.20;99.90;;;;;;5038218;28;20061;-71
2022/12/28 11:02:43;;;;;;;9.48;5.40;;;8.20;99.90;;;;;;5050547;28;20025;-70
2022/12/28 11:05:21;;;;;;;10.88;5.78;;;8.20;99.90;;;;;;4978602;28;20392;-71
2022/12/28 11:07:47;;;;;;;11.98;6.40;;;8.20;99.90;;;;;;5042918;28;20037;-70
2022/12/28 11:10:26;;;;;;;14.43;7.82;;;8.20;99.90;;;;;;5038975;28;20614;-71
2022/12/28 11:12:54;;;;;;;15.77;7.10;;;8.20;99.90;;;;;;5053451;28;20040;-70
2022/12/28 11:15:23;;;;;;;12.07;6.80;;;8.20;99.90;;;;;;5041747;28;20033;-68
2022/12/28 11:17:54;;;;;;;15.45;8.82;;;8.20;99.90;;;;;;5041634;28;20025;-71
2022/12/28 11:20:30;;;;;;;19.80;10.38;;;8.20;99.90;;;;;;5049657;28;20051;-71
2022/12/28 11:22:57;;;;;;;14.88;8.32;;;8.30;99.90;;;;;;5059111;28;20037;-71
2022/12/28 11:25:29;;;;;;;22.13;11.90;;;8.30;99.90;;;;;;5058460;28;21295;-71
2022/12/28 11:27:55;;;;;;;15.82;8.27;;;8.30;99.90;;;;;;5055290;28;20033;-70
2022/12/28 11:30:21;;;;;;;29.00;14.20;;;8.30;99.90;;;;;;5054198;28;20546;-71
2022/12/28 11:32:54;;;;;;;15.05;7.38;;;8.30;99.90;;;;;;5040376;28;20028;-71
2022/12/28 11:35:24;;;;;;;17.65;9.10;;;8.30;99.90;;;;;;5057592;28;20608;-70
2022/12/28 11:38:30;;;;;;;17.77;8.15;;;8.30;99.90;;;;;;5041242;28;20482;-70
2022/12/28 11:40:58;;;;;;;14.73;7.50;;;8.40;99.90;;;;;;5052222;28;20061;-68
2022/12/28 11:43:29;;;;;;;15.95;8.68;;;8.40;99.90;;;;;;5058752;28;20041;-70
2022/12/28 11:46:03;;;;;;;14.43;8.88;;;8.40;99.90;;;;;;5058782;28;20435;-71
2022/12/28 11:48:40;;;;;;;13.27;7.93;;;8.40;99.90;;;;;;5058074;28;20025;-70
2022/12/28 11:51:22;;;;;;;15.90;7.88;;;8.40;99.90;;;;;;5059258;28;20051;-71
2022/12/28 11:54:23;;;;;;;13.95;7.93;;;8.40;99.90;;;;;;5058996;28;20108;-69
2022/12/28 11:56:49;;;;;;;15.60;8.15;;;8.40;99.90;;;;;;5040094;28;20060;-72
2022/12/28 11:59:27;;;;;;;13.40;7.65;;;8.50;99.90;;;;;;5058367;28;21121;-70
2022/12/28 12:01:58;;;;;;;11.23;6.43;;;8.50;99.90;;;;;;5057605;28;20112;-73
2022/12/28 12:04:36;;;;;;;11.30;6.55;;;8.50;99.90;;;;;;5057510;28;20469;-73
2022/12/28 12:07:01;;;;;;;12.25;6.72;;;8.50;99.90;;;;;;5058946;28;20152;-71
2022/12/28 12:09:31;;;;;;;12.82;7.20;;;8.60;99.90;;;;;;5055259;28;20060;-69
2022/12/28 12:12:02;;;;;;;13.68;7.20;;;8.60;99.90;;;;;;5048933;28;20025;-70
2022/12/28 12:14:34;;;;;;;15.73;7.55;;;8.60;99.90;;;;;;5058767;28;20033;-71
2022/12/28 12:17:11;;;;;;;10.57;6.50;;;8.60;99.90;;;;;;5057614;28;20021;-73
2022/12/28 12:19:41;;;;;;;12.82;6.90;;;8.60;99.90;;;;;;5057680;28;20032;-71
2022/12/28 12:22:14;;;;;;;12.93;6.65;;;8.60;99.90;;;;;;5041313;28;20049;-69
2022/12/28 12:24:47;;;;;;;11.20;6.50;;;8.60;99.90;;;;;;5058049;28;20041;-71
2022/12/28 12:27:41;;;;;;;10.45;6.38;;;8.60;99.90;;;;;;5054778;28;20507;-71
2022/12/28 12:30:19;;;;;;;11.57;6.85;;;8.70;99.90;;;;;;5058068;28;20112;-70
2022/12/28 12:33:10;;;;;;;11.25;6.65;;;8.70;99.90;;;;;;5057965;28;20040;-72
2022/12/28 12:35:57;;;;;;;8.88;5.80;;;8.70;99.90;;;;;;5058998;28;20032;-70
2022/12/28 12:38:28;;;;;;;7.20;4.65;;;8.70;99.90;;;;;;5054287;28;20025;-69
2022/12/28 12:41:27;;;;;;;10.98;6.78;;;8.70;99.90;;;;;;5060837;28;20033;-74
2022/12/28 12:44:08;;;;;;;9.07;5.53;;;8.70;99.90;;;;;;5060541;28;20021;-69
2022/12/28 12:46:50;;;;;;;19.70;8.50;;;8.70;99.90;;;;;;5060585;28;20029;-68
2022/12/28 12:49:37;;;;;;;79.95;25.30;;;8.70;99.90;;;;;;5060181;28;20032;-70
2022/12/28 12:52:08;;;;;;;8.88;5.38;;;8.70;99.90;;;;;;5060468;28;20029;-73
2022/12/28 12:55:06;;;;;;;9.77;5.80;;;8.70;99.90;;;;;;5060057;28;20021;-70
2022/12/28 12:57:35;;;;;;;8.18;4.95;;;8.70;99.90;;;;;;5060523;28;20036;-69
2022/12/28 13:00:16;;;;;;;6.82;4.32;;;8.80;99.90;;;;;;5060572;28;20072;-71
2022/12/28 13:03:02;;;;;;;7.28;3.88;;;8.70;99.90;;;;;;5059680;28;20109;-73
2022/12/28 13:05:30;;;;;;;8.60;4.47;;;8.80;99.90;;;;;;5059955;28;20029;-71
2022/12/28 13:07:59;;;;;;;7.07;4.00;;;8.80;99.90;;;;;;5060931;28;20350;-70
2022/12/28 13:10:30;;;;;;;6.50;4.03;;;8.80;99.90;;;;;;5046639;28;20036;-71
2022/12/28 13:12:59;;;;;;;11.95;4.57;;;8.80;99.90;;;;;;5064194;28;20096;-71
2022/12/28 13:15:25;;;;;;;8.10;4.47;;;8.80;99.90;;;;;;5064352;28;20025;-71
2022/12/28 13:18:16;;;;;;;10.32;4.30;;;8.80;99.90;;;;;;5064048;28;20013;-69
2022/12/28 13:20:55;;;;;;;10.70;5.22;;;8.70;99.90;;;;;;5062329;28;20029;-70
2022/12/28 13:23:23;;;;;;;9.77;4.18;;;8.70;99.90;;;;;;5042694;28;20115;-68
2022/12/28 13:25:52;;;;;;;10.93;4.28;;;8.70;99.90;;;;;;5042023;28;20099;-68
2022/12/28 13:28:27;;;;;;;11.13;4.28;;;8.70;99.90;;;;;;5041667;28;20025;-70
2022/12/28 13:31:30;;;;;;;8.73;4.68;;;8.70;99.90;;;;;;5024945;28;20064;-69